Dades meteomassalio
Diari Summary for Febrer 27, 2017 Units:  Metric    English   Both
« Previous Day
Next Day »
Diari Semanal Mensual Anual Personalitzat
  Maxima: Minima: Mijana:
Temperatura: 18.7 °C 1.6 °C 10.4 °C
Rosada: 8.4 °C 0.5 °C 4.2 °C
Humitat: 93 % 41 % 69 %
Velocitat del vent: 31.5 km/h 0.0 km/h 8.4 km/h
Racha vent: 31.5 km/h - -
Vent:- - WNW
Pressio: 1019.2 hPa 1011.4 hPa -
Pluja: 0.5 mm    
Historical Graphs
 
 
Tabular Data for Febrer 27, 2017
Time Temperature Dew Point Pressure Wind Wind Speed Wind Gust Humidity Rainfall Rate (Hourly) solar Conditions
00:00 4.6 °C 2.9 °C 1019.2 hPa Calm     89 % 0.0 mm 0.0 W/m2 CLR
00:05 4.6 °C 2.7 °C 1019.2 hPa Calm     88 % 0.0 mm 0.0 W/m2 CLR
00:10 4.4 °C 2.6 °C 1019.2 hPa Calm     88 % 0.0 mm 0.0 W/m2 CLR
00:15 4.4 °C 2.6 °C 1019.2 hPa Calm     88 % 0.0 mm 0.0 W/m2 CLR
00:20 4.3 °C 2.7 °C 1019.2 hPa Calm     89 % 0.0 mm 0.0 W/m2 CLR
00:25 4.3 °C 2.4 °C 1019.2 hPa Calm     88 % 0.0 mm 0.0 W/m2 CLR
00:30 4.2 °C 2.6 °C 1018.8 hPa Calm     89 % 0.0 mm 0.0 W/m2 CLR
00:35 4.2 °C 2.6 °C 1018.8 hPa Calm     89 % 0.0 mm 0.0 W/m2 CLR
00:40 4.2 °C 2.5 °C 1018.8 hPa Calm     89 % 0.0 mm 0.0 W/m2 CLR
00:45 4.1 °C 2.4 °C 1018.8 hPa Calm     89 % 0.0 mm 0.0 W/m2 CLR
00:50 3.9 °C 2.2 °C 1018.8 hPa Calm     89 % 0.0 mm 0.0 W/m2 CLR
00:55 3.9 °C 2.2 °C 1018.8 hPa Calm     89 % 0.0 mm 0.0 W/m2 CLR
01:00 3.8 °C 2.1 °C 1018.8 hPa Calm     89 % 0.0 mm 0.0 W/m2 CLR
01:05 3.7 °C 2.1 °C 1018.8 hPa Calm     89 % 0.0 mm 0.0 W/m2 CLR
01:10 3.8 °C 2.3 °C 1018.8 hPa Calm     90 % 0.0 mm 0.0 W/m2 CLR
01:15 3.8 °C 2.3 °C 1018.8 hPa Calm     90 % 0.0 mm 0.0 W/m2 CLR
01:20 3.9 °C 2.4 °C 1018.8 hPa Calm     90 % 0.0 mm 0.0 W/m2 CLR
01:25 4.1 °C 2.6 °C 1018.8 hPa Calm     90 % 0.0 mm 0.0 W/m2 CLR
01:30 3.9 °C 2.4 °C 1018.8 hPa Calm     90 % 0.0 mm 0.0 W/m2 CLR
01:35 3.8 °C 2.3 °C 1018.8 hPa Calm     90 % 0.0 mm 0.0 W/m2 CLR
01:40 3.6 °C 1.9 °C 1018.5 hPa Calm     89 % 0.0 mm 0.0 W/m2 CLR
01:45 3.5 °C 2.0 °C 1018.5 hPa Calm     90 % 0.0 mm 0.0 W/m2 CLR
01:50 3.4 °C 1.7 °C 1018.5 hPa Calm     89 % 0.0 mm 0.0 W/m2 CLR
01:55 3.3 °C 1.8 °C 1018.5 hPa Calm     90 % 0.0 mm 0.0 W/m2 CLR
02:00 3.2 °C 1.7 °C 1018.5 hPa Calm     90 % 0.0 mm 0.0 W/m2 CLR
02:06 3.2 °C 1.7 °C 1018.5 hPa Calm     90 % 0.0 mm 0.0 W/m2 CLR
02:11 3.2 °C 1.7 °C 1018.5 hPa Calm     90 % 0.0 mm 0.0 W/m2 CLR
02:16 3.1 °C 1.6 °C 1018.5 hPa Calm     90 % 0.0 mm 0.0 W/m2 CLR
02:21 2.9 °C 1.4 °C 1018.5 hPa Calm     90 % 0.0 mm 0.0 W/m2 CLR
02:26 2.9 °C 1.4 °C 1018.5 hPa Calm     90 % 0.0 mm 0.0 W/m2 CLR
02:31 2.8 °C 1.3 °C 1018.5 hPa Calm     90 % 0.0 mm 0.0 W/m2 CLR
02:36 2.8 °C 1.4 °C 1018.5 hPa Calm     91 % 0.0 mm 0.0 W/m2 CLR
02:41 2.8 °C 1.4 °C 1018.5 hPa Calm     91 % 0.0 mm 0.0 W/m2 CLR
02:46 2.8 °C 1.5 °C 1018.2 hPa Calm     91 % 0.0 mm 0.0 W/m2 CLR
02:51 3.0 °C 1.7 °C 1018.2 hPa Calm     91 % 0.0 mm 0.0 W/m2 CLR
02:56 3.3 °C 2.2 °C 1018.2 hPa Calm     92 % 0.0 mm 0.0 W/m2 CLR
03:01 3.3 °C 2.0 °C 1018.2 hPa Calm     91 % 0.0 mm 0.0 W/m2 CLR
03:06 3.3 °C 1.9 °C 1018.2 hPa Calm     91 % 0.0 mm 0.0 W/m2 CLR
03:11 3.2 °C 1.8 °C 1018.2 hPa Calm     91 % 0.0 mm 0.0 W/m2 CLR
03:16 2.9 °C 1.6 °C 1018.2 hPa Calm     91 % 0.0 mm 0.0 W/m2 CLR
03:21 2.9 °C 1.6 °C 1018.2 hPa Calm     91 % 0.0 mm 0.0 W/m2 CLR
03:26 2.8 °C 1.5 °C 1017.8 hPa Calm     91 % 0.0 mm 0.0 W/m2 CLR
03:36 2.9 °C 1.8 °C 1017.8 hPa Calm     92 % 0.0 mm 0.0 W/m2 CLR
03:41 3.0 °C 1.8 °C 1017.8 hPa Calm     92 % 0.0 mm 0.0 W/m2 CLR
03:46 2.9 °C 1.6 °C 1017.8 hPa Calm     91 % 0.0 mm 0.0 W/m2 CLR
03:51 2.8 °C 1.5 °C 1017.8 hPa Calm     91 % 0.0 mm 0.0 W/m2 CLR
03:56 2.8 °C 1.4 °C 1017.8 hPa Calm     91 % 0.0 mm 0.0 W/m2 CLR
04:01 2.7 °C 1.3 °C 1017.8 hPa Calm     91 % 0.0 mm 0.0 W/m2 CLR
04:06 2.6 °C 1.2 °C 1017.8 hPa Calm     91 % 0.0 mm 0.0 W/m2 CLR
04:11 2.5 °C 1.2 °C 1017.8 hPa Calm     91 % 0.0 mm 0.0 W/m2 CLR
04:16 2.4 °C 1.3 °C 1017.8 hPa Calm     92 % 0.0 mm 0.0 W/m2 CLR
04:21 2.4 °C 1.2 °C 1017.8 hPa Calm     92 % 0.0 mm 0.0 W/m2 CLR
04:26 2.4 °C 1.2 °C 1017.8 hPa Calm     92 % 0.0 mm 0.0 W/m2 CLR
04:31 2.4 °C 1.2 °C 1017.8 hPa Calm     92 % 0.0 mm 0.0 W/m2 CLR
04:36 2.6 °C 1.4 °C 1017.5 hPa Calm     92 % 0.0 mm 0.0 W/m2 CLR
04:41 2.7 °C 1.6 °C 1017.5 hPa Calm     92 % 0.0 mm 0.0 W/m2 CLR
04:46 2.7 °C 1.5 °C 1017.5 hPa Calm     92 % 0.0 mm 0.0 W/m2 CLR
04:51 2.6 °C 1.4 °C 1017.5 hPa Calm     92 % 0.0 mm 0.0 W/m2 CLR
04:56 2.4 °C 1.2 °C 1017.5 hPa Calm     92 % 0.0 mm 0.0 W/m2 CLR
05:01 2.2 °C 0.8 °C 1017.5 hPa Calm     91 % 0.0 mm 0.0 W/m2 CLR
05:06 2.1 °C 0.9 °C 1017.5 hPa Calm     92 % 0.0 mm 0.0 W/m2 CLR
05:11 2.1 °C 0.9 °C 1017.5 hPa Calm     92 % 0.0 mm 0.0 W/m2 CLR
05:16 2.3 °C 1.1 °C 1017.5 hPa Calm     92 % 0.0 mm 0.0 W/m2 CLR
05:21 2.4 °C 1.4 °C 1017.5 hPa Calm     93 % 0.0 mm 0.0 W/m2 CLR
05:26 2.3 °C 1.1 °C 1017.5 hPa Calm     92 % 0.0 mm 0.0 W/m2 CLR
05:31 2.2 °C 1.0 °C 1017.5 hPa Calm     92 % 0.0 mm 0.0 W/m2 CLR
05:36 2.3 °C 1.3 °C 1017.5 hPa Calm     93 % 0.0 mm 0.0 W/m2 CLR
05:41 2.3 °C 1.2 °C 1017.5 hPa Calm     92 % 0.0 mm 0.0 W/m2 CLR
05:46 2.3 °C 1.1 °C 1017.5 hPa Calm     92 % 0.0 mm 0.0 W/m2 CLR
05:51 2.1 °C 0.9 °C 1017.5 hPa Calm     92 % 0.0 mm 0.0 W/m2 CLR
05:56 2.1 °C 0.9 °C 1017.5 hPa Calm     92 % 0.0 mm 0.0 W/m2 CLR
06:01 2.1 °C 0.9 °C 1017.5 hPa Calm     92 % 0.0 mm 0.0 W/m2 CLR
06:06 2.2 °C 1.0 °C 1017.5 hPa Calm     92 % 0.0 mm 0.0 W/m2 CLR
06:11 2.2 °C 1.0 °C 1017.5 hPa Calm     92 % 0.0 mm 0.0 W/m2 CLR
06:16 2.3 °C 1.3 °C 1017.5 hPa Calm     93 % 0.0 mm 0.0 W/m2 CLR
06:21 2.1 °C 0.9 °C 1017.5 hPa Calm     92 % 0.0 mm 0.0 W/m2 CLR
06:26 2.1 °C 0.9 °C 1017.5 hPa Calm     92 % 0.0 mm 0.0 W/m2 CLR
06:31 2.1 °C 0.9 °C 1017.5 hPa Calm     92 % 0.0 mm 0.0 W/m2 CLR
06:36 2.0 °C 0.8 °C 1017.5 hPa Calm     92 % 0.0 mm 0.0 W/m2 CLR
06:37 2.0 °C 0.8 °C 1017.5 hPa Calm     92 % 0.0 mm 0.0 W/m2 CLR
06:42 1.9 °C 0.8 °C 1017.5 hPa Calm     92 % 0.0 mm 0.0 W/m2 CLR
06:47 1.8 °C 0.7 °C 1017.5 hPa Calm     92 % 0.0 mm 0.0 W/m2 CLR
06:52 1.7 °C 0.6 °C 1017.5 hPa Calm     92 % 0.0 mm 0.0 W/m2 CLR
06:57 2.1 °C 1.1 °C 1017.5 hPa Calm     93 % 0.0 mm 0.0 W/m2 CLR
07:02 2.1 °C 1.1 °C 1017.5 hPa Calm     93 % 0.0 mm 0.0 W/m2 CLR
07:07 2.0 °C 0.8 °C 1017.5 hPa Calm     92 % 0.0 mm 0.0 W/m2 CLR
07:12 1.8 °C 0.7 °C 1017.5 hPa Calm     92 % 0.0 mm 0.0 W/m2 CLR
07:17 1.8 °C 0.7 °C 1017.5 hPa Calm     92 % 0.0 mm 0.0 W/m2 CLR
07:22 1.8 °C 0.7 °C 1017.5 hPa Calm     92 % 0.0 mm 0.0 W/m2 CLR
07:27 1.9 °C 0.9 °C 1017.5 hPa Calm     93 % 0.0 mm 0.0 W/m2 OVC
07:32 1.9 °C 0.9 °C 1017.8 hPa Calm     93 % 0.0 mm 0.0 W/m2 OVC
07:37 1.8 °C 0.6 °C 1017.5 hPa Calm     92 % 0.5 mm 5.0 W/m2 RA
07:42 1.7 °C 0.5 °C 1017.8 hPa Calm     92 % 0.5 mm 9.0 W/m2 BKN
07:47 1.6 °C 0.6 °C 1017.8 hPa Calm     93 % 0.5 mm 12.0 W/m2 BKN
07:52 1.7 °C 0.7 °C 1017.5 hPa Calm     93 % 0.5 mm 16.0 W/m2 BKN
07:57 1.8 °C 0.8 °C 1017.5 hPa Calm     93 % 0.5 mm 19.0 W/m2 BKN
08:02 1.9 °C 0.9 °C 1017.5 hPa Calm     93 % 0.5 mm 25.0 W/m2 BKN
08:07 2.1 °C 1.1 °C 1017.8 hPa Calm     93 % 0.5 mm 32.0 W/m2 BKN
08:12 2.3 °C 1.3 °C 1017.8 hPa Calm     93 % 0.5 mm 37.0 W/m2 BKN
08:17 2.6 °C 1.6 °C 1017.8 hPa Calm     93 % 0.5 mm 46.0 W/m2 SCT
08:22 2.7 °C 1.7 °C 1017.8 hPa Calm     93 % 0.5 mm 53.0 W/m2 SCT
08:27 2.8 °C 1.8 °C 1017.8 hPa Calm     93 % 0.5 mm 77.0 W/m2 FEW
08:32 3.0 °C 2.0 °C 1017.8 hPa Calm     93 % 0.5 mm 90.0 W/m2 CLR
08:37 3.3 °C 2.3 °C 1017.8 hPa Calm     93 % 0.0 mm 90.0 W/m2 CLR
08:42 3.6 °C 2.6 °C 1017.8 hPa Calm     93 % 0.0 mm 113.0 W/m2 CLR
08:47 3.8 °C 2.8 °C 1017.8 hPa Calm     93 % 0.0 mm 118.0 W/m2 CLR
08:52 4.1 °C 2.9 °C 1017.8 hPa Calm     92 % 0.0 mm 130.0 W/m2 CLR
08:57 4.4 °C 3.3 °C 1017.8 hPa Calm     92 % 0.0 mm 141.0 W/m2 CLR
09:02 4.8 °C 3.7 °C 1017.8 hPa Calm     92 % 0.0 mm 134.0 W/m2 CLR
09:07 5.3 °C 4.1 °C 1017.8 hPa Calm     92 % 0.0 mm 195.0 W/m2 CLR
09:12 5.7 °C 4.4 °C 1017.8 hPa Calm     91 % 0.0 mm 181.0 W/m2 CLR
09:17 6.1 °C 4.8 °C 1017.8 hPa Calm     91 % 0.0 mm 232.0 W/m2 CLR
09:22 6.6 °C 4.9 °C 1017.8 hPa Calm     89 % 0.0 mm 236.0 W/m2 CLR
09:27 7.1 °C 5.1 °C 1017.8 hPa Calm     87 % 0.0 mm 241.0 W/m2 CLR
09:32 7.4 °C 5.3 °C 1017.8 hPa Calm     86 % 0.0 mm 287.0 W/m2 CLR
09:37 7.9 °C 5.5 °C 1017.8 hPa Calm     85 % 0.0 mm 230.0 W/m2 CLR
09:42 8.3 °C 5.6 °C 1017.8 hPa Calm     83 % 0.0 mm 216.0 W/m2 CLR
09:47 8.6 °C 5.7 °C 1017.5 hPa Calm     82 % 0.0 mm 295.0 W/m2 CLR
09:52 8.8 °C 5.9 °C 1017.8 hPa Calm     82 % 0.0 mm 394.0 W/m2 CLR
09:57 9.3 °C 6.1 °C 1017.5 hPa Calm     80 % 0.0 mm 443.0 W/m2 CLR
10:02 9.8 °C 6.5 °C 1017.5 hPa Calm     80 % 0.0 mm 464.0 W/m2 CLR
10:07 10.2 °C 6.6 °C 1017.5 hPa Calm     78 % 0.0 mm 482.0 W/m2 CLR
10:12 10.6 °C 6.7 °C 1017.5 hPa ESE 3.7 km/h 3.7 km/h 77 % 0.0 mm 385.0 W/m2 CLR
10:17 10.8 °C 6.9 °C 1017.5 hPa Calm     77 % 0.0 mm 341.0 W/m2 CLR
10:23 11.2 °C 7.3 °C 1017.5 hPa WNW 6.4 km/h 6.4 km/h 77 % 0.0 mm 292.0 W/m2 CLR
10:28 11.8 °C 7.6 °C 1017.5 hPa NW 12.9 km/h 12.9 km/h 75 % 0.0 mm 308.0 W/m2 CLR
10:33 12.4 °C 7.5 °C 1017.5 hPa NNW 16.7 km/h 16.7 km/h 72 % 0.0 mm 406.0 W/m2 CLR
10:38 12.8 °C 7.7 °C 1017.2 hPa WNW 13.0 km/h 13.0 km/h 71 % 0.0 mm 464.0 W/m2 CLR
10:43 13.1 °C 7.7 °C 1017.2 hPa WNW 13.0 km/h 13.0 km/h 70 % 0.0 mm 469.0 W/m2 CLR
10:48 13.2 °C 7.8 °C 1017.2 hPa NNW 7.4 km/h 7.4 km/h 70 % 0.0 mm 415.0 W/m2 CLR
10:53 13.4 °C 7.8 °C 1017.2 hPa WNW 13.0 km/h 13.7 km/h 69 % 0.0 mm 496.0 W/m2 CLR
10:58 13.6 °C 7.8 °C 1017.2 hPa NW 13.0 km/h 13.0 km/h 68 % 0.0 mm 499.0 W/m2 CLR
11:03 13.8 °C 8.0 °C 1017.2 hPa North 16.7 km/h 16.7 km/h 68 % 0.0 mm 517.0 W/m2 CLR
11:08 13.6 °C 7.4 °C 1017.2 hPa NW 22.5 km/h 22.5 km/h 66 % 0.0 mm 510.0 W/m2 CLR
11:13 13.5 °C 7.3 °C 1017.2 hPa NNW 22.2 km/h 22.2 km/h 66 % 0.0 mm 524.0 W/m2 CLR
11:18 13.6 °C 7.6 °C 1017.2 hPa NW 31.5 km/h 31.5 km/h 67 % 0.0 mm 524.0 W/m2 CLR
11:23 13.7 °C 7.7 °C 1017.2 hPa NW 22.2 km/h 22.2 km/h 67 % 0.0 mm 533.0 W/m2 CLR
11:28 13.8 °C 7.3 °C 1016.8 hPa NW 27.8 km/h 27.8 km/h 65 % 0.0 mm 550.0 W/m2 CLR
11:33 14.0 °C 7.7 °C 1016.8 hPa NW 20.4 km/h 20.4 km/h 66 % 0.0 mm 563.0 W/m2 CLR
11:38 14.1 °C 7.6 °C 1016.8 hPa NW 20.4 km/h 20.4 km/h 65 % 0.0 mm 550.0 W/m2 CLR
11:43 14.1 °C 7.6 °C 1016.8 hPa WNW 24.1 km/h 24.1 km/h 65 % 0.0 mm 541.0 W/m2 CLR
11:48 14.3 °C 8.0 °C 1016.8 hPa WNW 13.0 km/h 13.0 km/h 66 % 0.0 mm 568.0 W/m2 CLR
11:53 14.4 °C 7.7 °C 1016.5 hPa WNW 27.8 km/h 27.8 km/h 64 % 0.0 mm 575.0 W/m2 CLR
11:58 14.4 °C 7.7 °C 1016.5 hPa WNW 24.1 km/h 24.1 km/h 64 % 0.0 mm 582.0 W/m2 CLR
12:03 14.6 °C 7.8 °C 1016.5 hPa NW 20.4 km/h 20.4 km/h 64 % 0.0 mm 584.0 W/m2 CLR
12:08 14.7 °C 8.0 °C 1016.5 hPa NNW 20.9 km/h 20.9 km/h 64 % 0.0 mm 594.0 W/m2 CLR
12:14 14.8 °C 8.1 °C 1016.5 hPa NW 22.2 km/h 22.2 km/h 64 % 0.0 mm 603.0 W/m2 CLR
12:18 15.0 °C 7.8 °C 1016.5 hPa NNW 29.6 km/h 29.6 km/h 62 % 0.0 mm 599.0 W/m2 CLR
12:24 15.0 °C 8.0 °C 1016.5 hPa NW 18.5 km/h 18.5 km/h 63 % 0.0 mm 608.0 W/m2 CLR
12:29 15.1 °C 8.1 °C 1016.1 hPa NW 18.5 km/h 18.5 km/h 63 % 0.0 mm 628.0 W/m2 CLR
12:34 15.2 °C 8.0 °C 1015.8 hPa NNW 9.3 km/h 9.3 km/h 62 % 0.0 mm 621.0 W/m2 CLR
12:39 15.4 °C 8.2 °C 1015.8 hPa West 11.1 km/h 11.1 km/h 62 % 0.0 mm 612.0 W/m2 CLR
12:44 15.4 °C 7.4 °C 1015.8 hPa West 20.9 km/h 23.7 km/h 59 % 0.0 mm 504.0 W/m2 CLR
12:49 15.3 °C 7.8 °C 1015.8 hPa WSW 17.7 km/h 17.7 km/h 61 % 0.0 mm 585.0 W/m2 CLR
12:54 15.5 °C 7.5 °C 1015.8 hPa WNW 24.1 km/h 24.1 km/h 59 % 0.0 mm 584.0 W/m2 CLR
12:59 15.7 °C 8.2 °C 1015.5 hPa NW 16.7 km/h 16.7 km/h 61 % 0.0 mm 621.0 W/m2 CLR
13:04 15.9 °C 8.4 °C 1015.5 hPa WNW 27.8 km/h 27.8 km/h 61 % 0.0 mm 652.0 W/m2 CLR
13:09 16.1 °C 8.3 °C 1015.1 hPa WNW 22.5 km/h 22.5 km/h 60 % 0.0 mm 659.0 W/m2 CLR
13:14 16.3 °C 8.3 °C 1015.1 hPa NW 20.4 km/h 20.4 km/h 59 % 0.0 mm 643.0 W/m2 CLR
13:19 16.3 °C 8.1 °C 1015.1 hPa NW 22.5 km/h 22.5 km/h 58 % 0.0 mm 649.0 W/m2 CLR
13:24 16.4 °C 7.3 °C 1014.8 hPa West 13.0 km/h 13.0 km/h 55 % 0.0 mm 687.0 W/m2 CLR
13:29 16.6 °C 7.7 °C 1014.8 hPa West 30.6 km/h 30.6 km/h 56 % 0.0 mm 666.0 W/m2 CLR
13:34 16.5 °C 6.9 °C 1014.4 hPa WNW 29.6 km/h 29.6 km/h 53 % 0.0 mm 657.0 W/m2 CLR
13:39 16.8 °C 6.9 °C 1014.4 hPa WNW 13.0 km/h 13.0 km/h 52 % 0.0 mm 670.0 W/m2 CLR
13:44 17.0 °C 7.1 °C 1014.4 hPa NNW 27.8 km/h 27.8 km/h 52 % 0.0 mm 659.0 W/m2 CLR
13:49 17.1 °C 6.9 °C 1014.1 hPa NW 17.7 km/h 17.7 km/h 51 % 0.0 mm 624.0 W/m2 CLR
13:54 17.3 °C 7.4 °C 1014.1 hPa West 18.5 km/h 18.5 km/h 52 % 0.0 mm 659.0 W/m2 CLR
13:59 17.5 °C 6.9 °C 1014.1 hPa NW 9.3 km/h 9.3 km/h 50 % 0.0 mm 708.0 W/m2 CLR
14:04 17.5 °C 6.7 °C 1014.1 hPa WNW 18.5 km/h 18.5 km/h 49 % 0.0 mm 649.0 W/m2 CLR
14:09 17.5 °C 6.1 °C 1013.8 hPa NW 29.6 km/h 29.6 km/h 47 % 0.0 mm 640.0 W/m2 CLR
14:14 17.6 °C 6.7 °C 1013.8 hPa West 27.8 km/h 27.8 km/h 49 % 0.0 mm 633.0 W/m2 CLR
14:19 17.3 °C 6.5 °C 1013.8 hPa WNW 25.9 km/h 25.9 km/h 49 % 0.0 mm 621.0 W/m2 CLR
14:24 17.2 °C 7.0 °C 1013.8 hPa WNW 20.4 km/h 20.4 km/h 51 % 0.0 mm 610.0 W/m2 CLR
14:29 17.4 °C 6.8 °C 1013.4 hPa WNW 18.5 km/h 18.5 km/h 50 % 0.0 mm 603.0 W/m2 CLR
14:34 17.3 °C 6.5 °C 1013.4 hPa NW 18.5 km/h 18.5 km/h 49 % 0.0 mm 599.0 W/m2 CLR
14:39 17.4 °C 6.3 °C 1013.4 hPa West 16.1 km/h 16.1 km/h 48 % 0.0 mm 596.0 W/m2 CLR
14:44 17.5 °C 5.7 °C 1013.4 hPa West 16.7 km/h 16.7 km/h 46 % 0.0 mm 589.0 W/m2 CLR
14:49 17.7 °C 6.6 °C 1013.1 hPa West 11.1 km/h 11.1 km/h 48 % 0.0 mm 584.0 W/m2 CLR
14:54 18.0 °C 6.5 °C 1013.1 hPa WNW 11.1 km/h 11.1 km/h 47 % 0.0 mm 571.0 W/m2 CLR
14:59 18.1 °C 6.6 °C 1013.1 hPa WNW 13.0 km/h 13.0 km/h 47 % 0.0 mm 563.0 W/m2 CLR
15:04 18.2 °C 7.0 °C 1013.1 hPa WNW 13.0 km/h 13.0 km/h 48 % 0.0 mm 554.0 W/m2 CLR
15:09 18.2 °C 6.3 °C 1013.1 hPa West 11.3 km/h 11.3 km/h 46 % 0.0 mm 543.0 W/m2 CLR
15:15 18.1 °C 6.3 °C 1012.8 hPa NW 9.7 km/h 9.7 km/h 46 % 0.0 mm 536.0 W/m2 CLR
15:20 18.1 °C 6.3 °C 1012.8 hPa WNW 18.5 km/h 18.5 km/h 46 % 0.0 mm 531.0 W/m2 CLR
15:25 18.2 °C 6.7 °C 1012.8 hPa NW 20.4 km/h 20.4 km/h 47 % 0.0 mm 519.0 W/m2 CLR
15:30 18.2 °C 5.8 °C 1012.8 hPa WNW 13.0 km/h 13.0 km/h 44 % 0.0 mm 510.0 W/m2 CLR
15:35 18.2 °C 6.1 °C 1012.8 hPa WNW 13.0 km/h 13.0 km/h 45 % 0.0 mm 499.0 W/m2 CLR
15:40 18.3 °C 6.1 °C 1012.4 hPa NW 20.4 km/h 20.4 km/h 45 % 0.0 mm 492.0 W/m2 CLR
15:45 18.2 °C 5.8 °C 1012.4 hPa WSW 5.6 km/h 5.6 km/h 44 % 0.0 mm 478.0 W/m2 CLR
15:50 18.3 °C 5.8 °C 1012.4 hPa SW 13.0 km/h 13.0 km/h 44 % 0.0 mm 469.0 W/m2 CLR
15:55 18.6 °C 5.4 °C 1012.4 hPa WNW 11.1 km/h 11.9 km/h 42 % 0.0 mm 461.0 W/m2 CLR
16:00 18.5 °C 5.7 °C 1012.4 hPa West 11.1 km/h 11.1 km/h 43 % 0.0 mm 450.0 W/m2 CLR
16:05 18.6 °C 5.4 °C 1012.1 hPa NW 9.7 km/h 9.7 km/h 42 % 0.0 mm 434.0 W/m2 CLR
16:10 18.7 °C 5.6 °C 1012.1 hPa WNW 20.9 km/h 20.9 km/h 42 % 0.0 mm 420.0 W/m2 CLR
16:15 18.5 °C 5.3 °C 1012.1 hPa West 13.0 km/h 13.0 km/h 42 % 0.0 mm 406.0 W/m2 CLR
16:20 18.4 °C 5.6 °C 1012.1 hPa WNW 5.6 km/h   43 % 0.0 mm 390.0 W/m2 CLR
16:25 18.5 °C 5.0 °C 1012.1 hPa West 18.5 km/h 18.5 km/h 41 % 0.0 mm 378.0 W/m2 CLR
16:30 18.4 °C 5.2 °C 1012.1 hPa WNW 5.6 km/h 5.6 km/h 42 % 0.0 mm 362.0 W/m2 CLR
16:35 18.6 °C 5.7 °C 1012.1 hPa NNW 11.1 km/h 11.1 km/h 43 % 0.0 mm 348.0 W/m2 CLR
16:40 18.6 °C 5.4 °C 1012.1 hPa NW 11.1 km/h 11.1 km/h 42 % 0.0 mm 339.0 W/m2 CLR
16:45 18.5 °C 5.7 °C 1012.1 hPa WNW 5.6 km/h 5.6 km/h 43 % 0.0 mm 322.0 W/m2 CLR
16:50 18.6 °C 5.4 °C 1011.7 hPa NW 16.7 km/h 16.7 km/h 42 % 0.0 mm 308.0 W/m2 CLR
16:55 18.6 °C 5.4 °C 1011.7 hPa NW 18.5 km/h 18.5 km/h 42 % 0.0 mm 294.0 W/m2 CLR
17:00 18.4 °C 5.3 °C 1011.7 hPa WNW 16.7 km/h 16.7 km/h 42 % 0.0 mm 279.0 W/m2 CLR
17:05 18.5 °C 5.7 °C 1011.7 hPa NW 6.4 km/h 6.4 km/h 43 % 0.0 mm 264.0 W/m2 CLR
17:10 18.6 °C 5.8 °C 1011.7 hPa West 12.9 km/h 12.9 km/h 43 % 0.0 mm 248.0 W/m2 CLR
17:15 18.5 °C 5.7 °C 1011.7 hPa WNW 9.7 km/h 9.7 km/h 43 % 0.0 mm 232.0 W/m2 CLR
17:20 18.4 °C 5.6 °C 1011.7 hPa NW 9.3 km/h 9.3 km/h 43 % 0.0 mm 214.0 W/m2 CLR
17:25 18.3 °C 5.5 °C 1011.7 hPa WNW 13.0 km/h 13.0 km/h 43 % 0.0 mm 193.0 W/m2 CLR
17:30 18.2 °C 5.8 °C 1011.7 hPa NW 5.6 km/h 5.6 km/h 44 % 0.0 mm 176.0 W/m2 CLR
17:35 18.3 °C 5.8 °C 1011.4 hPa Calm     44 % 0.0 mm 158.0 W/m2 CLR
17:40 18.3 °C 5.5 °C 1011.4 hPa NW 8.0 km/h 8.0 km/h 43 % 0.0 mm 142.0 W/m2 CLR
17:45 18.3 °C 5.5 °C 1011.4 hPa WNW 9.7 km/h 9.7 km/h 43 % 0.0 mm 123.0 W/m2 CLR
17:50 18.3 °C 5.5 °C 1011.4 hPa NW 8.0 km/h 8.0 km/h 43 % 0.0 mm 109.0 W/m2 CLR
17:55 18.2 °C 5.4 °C 1011.4 hPa NW 7.4 km/h 7.4 km/h 43 % 0.0 mm 95.0 W/m2 CLR
18:00 18.2 °C 5.4 °C 1011.4 hPa NNW 5.6 km/h 5.6 km/h 43 % 0.0 mm 72.0 W/m2 FEW
18:05 18.1 °C 5.7 °C 1011.7 hPa NNW 11.1 km/h 11.1 km/h 44 % 0.0 mm 56.0 W/m2 SCT
18:10 17.8 °C 5.4 °C 1011.7 hPa North 5.6 km/h 5.6 km/h 44 % 0.0 mm 46.0 W/m2 SCT
18:15 17.7 °C 5.6 °C 1011.7 hPa North 5.6 km/h   45 % 0.0 mm 35.0 W/m2 BKN
18:20 17.6 °C 5.5 °C 1011.7 hPa Calm     45 % 0.0 mm 26.0 W/m2 BKN
18:25 17.5 °C 5.7 °C 1011.7 hPa Calm     46 % 0.0 mm 19.0 W/m2 BKN
18:30 17.2 °C 5.5 °C 1011.7 hPa Calm     46 % 0.0 mm 14.0 W/m2 BKN
18:35 16.8 °C 5.4 °C 1012.1 hPa NW 4.8 km/h 4.8 km/h 47 % 0.0 mm 11.0 W/m2 BKN
18:40 16.6 °C 5.5 °C 1012.1 hPa NNW 1.9 km/h   48 % 0.0 mm 9.0 W/m2 BKN
18:45 16.2 °C 5.5 °C 1012.1 hPa Calm     49 % 0.0 mm 7.0 W/m2 BKN
18:50 16.0 °C 5.3 °C 1012.1 hPa WNW 5.6 km/h 5.6 km/h 49 % 0.0 mm 0.0 W/m2 OVC
18:55 15.7 °C 5.3 °C 1012.1 hPa WNW 5.6 km/h 5.6 km/h 50 % 0.0 mm 0.0 W/m2 OVC
19:00 15.4 °C 5.3 °C 1012.1 hPa Calm     51 % 0.0 mm 0.0 W/m2 CLR
19:05 15.1 °C 5.1 °C 1012.1 hPa WNW 9.7 km/h 9.7 km/h 51 % 0.0 mm 0.0 W/m2 CLR
19:10 14.9 °C 4.8 °C 1012.1 hPa NW 7.4 km/h 7.4 km/h 51 % 0.0 mm 0.0 W/m2 CLR
19:15 14.8 °C 4.8 °C 1012.1 hPa WNW 7.4 km/h 7.4 km/h 51 % 0.0 mm 0.0 W/m2 CLR
19:20 14.8 °C 4.7 °C 1012.4 hPa NW 5.6 km/h 5.6 km/h 51 % 0.0 mm 0.0 W/m2 CLR
19:25 14.7 °C 4.6 °C 1012.4 hPa Calm     51 % 0.0 mm 0.0 W/m2 CLR
19:30 14.8 °C 4.4 °C 1012.4 hPa Calm     50 % 0.0 mm 0.0 W/m2 CLR
19:35 14.8 °C 4.4 °C 1012.8 hPa West 5.6 km/h 5.6 km/h 50 % 0.0 mm 0.0 W/m2 CLR
19:40 14.8 °C 4.5 °C 1012.4 hPa WNW 7.4 km/h 7.4 km/h 50 % 0.0 mm 0.0 W/m2 CLR
19:45 14.8 °C 4.2 °C 1012.4 hPa WNW 8.0 km/h 8.0 km/h 49 % 0.0 mm 0.0 W/m2 CLR
19:50 14.8 °C 4.5 °C 1012.8 hPa WNW 9.3 km/h 9.3 km/h 50 % 0.0 mm 0.0 W/m2 CLR
19:55 14.6 °C 4.3 °C 1012.8 hPa West 5.6 km/h 5.6 km/h 50 % 0.0 mm 0.0 W/m2 CLR
20:00 14.6 °C 4.2 °C 1012.8 hPa West 14.8 km/h 14.8 km/h 50 % 0.0 mm 0.0 W/m2 CLR
20:05 14.8 °C 4.2 °C 1012.8 hPa West 11.1 km/h 11.1 km/h 49 % 0.0 mm 0.0 W/m2 CLR
20:10 14.8 °C 4.2 °C 1012.8 hPa WNW 11.1 km/h 11.1 km/h 49 % 0.0 mm 0.0 W/m2 CLR
20:15 14.8 °C 4.4 °C 1012.8 hPa WNW 18.5 km/h 18.5 km/h 50 % 0.0 mm 0.0 W/m2 CLR
20:20 14.9 °C 4.3 °C 1012.8 hPa WNW 22.2 km/h 22.2 km/h 49 % 0.0 mm 0.0 W/m2 CLR
20:25 15.0 °C 4.4 °C 1012.8 hPa West 18.5 km/h 18.5 km/h 49 % 0.0 mm 0.0 W/m2 CLR
20:30 15.0 °C 4.4 °C 1012.8 hPa WNW 29.6 km/h 29.6 km/h 49 % 0.0 mm 0.0 W/m2 CLR
20:35 15.0 °C 4.4 °C 1012.8 hPa WNW 25.9 km/h 25.9 km/h 49 % 0.0 mm 0.0 W/m2 CLR
20:40 14.8 °C 4.5 °C 1012.8 hPa West 27.8 km/h 27.8 km/h 50 % 0.0 mm 0.0 W/m2 CLR
20:45 14.6 °C 4.3 °C 1012.8 hPa West 24.1 km/h 24.1 km/h 50 % 0.0 mm 0.0 W/m2 CLR
20:50 14.4 °C 4.4 °C 1012.8 hPa WNW 25.7 km/h 25.7 km/h 51 % 0.0 mm 0.0 W/m2 CLR
20:55 14.4 °C 4.4 °C 1012.8 hPa WNW 24.1 km/h 24.1 km/h 51 % 0.0 mm 0.0 W/m2 CLR
21:00 14.3 °C 4.3 °C 1012.8 hPa West 24.1 km/h 24.1 km/h 51 % 0.0 mm 0.0 W/m2 CLR
21:05 14.2 °C 4.2 °C 1012.8 hPa West 24.1 km/h 24.1 km/h 51 % 0.0 mm 0.0 W/m2 CLR
21:10 14.2 °C 4.4 °C 1012.8 hPa WNW 24.1 km/h 24.1 km/h 52 % 0.0 mm 0.0 W/m2 CLR
21:16 14.1 °C 4.3 °C 1013.1 hPa West 31.5 km/h 31.5 km/h 52 % 0.0 mm 0.0 W/m2 CLR
21:20 14.1 °C 4.3 °C 1013.1 hPa WNW 24.1 km/h 24.1 km/h 52 % 0.0 mm 0.0 W/m2 CLR
21:26 13.9 °C 4.2 °C 1013.1 hPa West 20.4 km/h 20.4 km/h 52 % 0.0 mm 0.0 W/m2 CLR
21:31 13.8 °C 4.1 °C 1013.1 hPa West 24.1 km/h 24.1 km/h 52 % 0.0 mm 0.0 W/m2 CLR
21:36 13.8 °C 4.1 °C 1013.4 hPa WSW 20.4 km/h 20.4 km/h 52 % 0.0 mm 0.0 W/m2 CLR
21:41 13.8 °C 4.1 °C 1013.4 hPa WSW 20.4 km/h 20.4 km/h 52 % 0.0 mm 0.0 W/m2 CLR
21:46 13.7 °C 4.1 °C 1013.4 hPa West 25.9 km/h 25.9 km/h 52 % 0.0 mm 0.0 W/m2 CLR
21:51 13.7 °C 4.1 °C 1013.4 hPa West 24.1 km/h 24.1 km/h 52 % 0.0 mm 0.0 W/m2 CLR
21:56 13.7 °C 4.1 °C 1013.4 hPa WNW 25.9 km/h 25.9 km/h 52 % 0.0 mm 0.0 W/m2 CLR
22:01 13.7 °C 4.0 °C 1013.4 hPa West 22.2 km/h 22.2 km/h 52 % 0.0 mm 0.0 W/m2 CLR
22:06 13.6 °C 4.2 °C 1013.4 hPa WSW 22.2 km/h 22.2 km/h 53 % 0.0 mm 0.0 W/m2 CLR
22:11 13.3 °C 3.9 °C 1013.4 hPa West 22.2 km/h 22.2 km/h 53 % 0.0 mm 0.0 W/m2 CLR
22:16 13.3 °C 4.2 °C 1013.4 hPa WSW 20.9 km/h 20.9 km/h 54 % 0.0 mm 0.0 W/m2 CLR
22:21 13.1 °C 3.9 °C 1013.4 hPa WSW 14.8 km/h 14.8 km/h 54 % 0.0 mm 0.0 W/m2 CLR
22:26 12.9 °C 4.1 °C 1013.4 hPa WSW 5.6 km/h 5.6 km/h 55 % 0.0 mm 0.0 W/m2 CLR
22:31 12.7 °C 4.1 °C 1013.4 hPa SW 14.8 km/h 14.8 km/h 56 % 0.0 mm 0.0 W/m2 CLR
22:36 12.8 °C 4.3 °C 1013.4 hPa West 31.5 km/h 31.5 km/h 56 % 0.0 mm 0.0 W/m2 CLR
22:41 13.2 °C 4.3 °C 1013.4 hPa West 22.2 km/h 22.2 km/h 55 % 0.0 mm 0.0 W/m2 CLR
22:46 13.2 °C 4.3 °C 1013.4 hPa West 18.5 km/h 18.5 km/h 55 % 0.0 mm 0.0 W/m2 CLR
22:51 13.0 °C 4.2 °C 1013.4 hPa WSW 5.6 km/h 5.6 km/h 55 % 0.0 mm 0.0 W/m2 CLR
22:56 12.7 °C 4.2 °C 1013.4 hPa WSW 5.6 km/h 5.6 km/h 56 % 0.0 mm 0.0 W/m2 CLR
23:01 12.3 °C 4.1 °C 1013.1 hPa WSW 5.6 km/h 5.6 km/h 57 % 0.0 mm 0.0 W/m2 CLR
23:06 12.1 °C 4.1 °C 1013.1 hPa WSW 5.6 km/h 5.6 km/h 58 % 0.0 mm 0.0 W/m2 CLR
23:11 11.9 °C 4.1 °C 1013.1 hPa WSW 5.6 km/h 5.6 km/h 59 % 0.0 mm 0.0 W/m2 CLR
23:16 11.8 °C 4.1 °C 1013.1 hPa Calm     59 % 0.0 mm 0.0 W/m2 CLR
23:21 11.8 °C 4.1 °C 1013.1 hPa WSW 5.6 km/h 5.6 km/h 59 % 0.0 mm 0.0 W/m2 CLR
23:26 11.9 °C 4.1 °C 1013.1 hPa Calm     59 % 0.0 mm 0.0 W/m2 CLR
23:31 11.9 °C 4.2 °C 1012.8 hPa WSW 11.1 km/h 11.1 km/h 59 % 0.0 mm 0.0 W/m2 CLR
23:36 12.2 °C 4.2 °C 1013.1 hPa West 5.6 km/h 5.6 km/h 58 % 0.0 mm 0.0 W/m2 CLR
23:37 12.3 °C 4.0 °C 1012.8 hPa West 5.6 km/h 5.6 km/h 57 % 0.0 mm 0.0 W/m2 CLR
23:42 12.4 °C 4.2 °C 1012.8 hPa West 14.8 km/h 14.8 km/h 57 % 0.0 mm 0.0 W/m2 CLR
23:47 12.6 °C 4.1 °C 1012.8 hPa WSW 11.1 km/h 11.1 km/h 56 % 0.0 mm 0.0 W/m2 CLR
23:52 12.6 °C 4.0 °C 1012.8 hPa West 7.4 km/h 7.4 km/h 56 % 0.0 mm 0.0 W/m2 CLR
23:57 12.4 °C 4.1 °C 1012.8 hPa WSW 6.4 km/h 6.4 km/h 57 % 0.0 mm 0.0 W/m2 CLR
Lo Temps de Massalio
Compliments of Weather Underground - 1.25 mb